createdAt,value
2019-02-22T00:39:31.820Z,3.60
2019-02-22T00:40:31.772Z,3.80
2019-02-22T00:41:31.730Z,3.60
2019-02-22T00:42:31.803Z,3.50
2019-02-22T00:43:31.651Z,3.40
2019-02-22T00:44:31.610Z,3.40
2019-02-22T00:45:55.982Z,3.30
2019-02-22T00:46:55.943Z,3.30
2019-02-22T00:47:55.947Z,3.60
2019-02-22T00:48:55.925Z,3.10
2019-02-22T00:49:55.907Z,3.40
2019-02-22T00:50:55.904Z,3.20
2019-02-22T00:51:55.903Z,3.30
2019-02-22T00:52:55.878Z,3.50
2019-02-22T00:53:55.867Z,3.00
2019-02-22T00:54:56.574Z,3.30
2019-02-22T00:55:55.841Z,3.10
2019-02-22T00:56:55.828Z,3.10
2019-02-22T00:57:55.866Z,3.10
2019-02-22T00:58:55.807Z,3.10
2019-02-22T00:59:55.796Z,3.40
2019-02-22T01:00:55.787Z,3.30
2019-02-22T01:01:55.773Z,3.00
2019-02-22T01:02:55.768Z,3.20
2019-02-22T01:03:55.768Z,3.10
2019-02-22T01:04:55.803Z,3.20
2019-02-22T01:05:55.731Z,3.10
2019-02-22T01:06:55.717Z,3.00
2019-02-22T01:07:55.707Z,3.00
2019-02-22T01:08:55.714Z,3.00
2019-02-22T01:09:55.698Z,3.20
2019-02-22T01:10:55.683Z,3.00
2019-02-22T01:11:55.665Z,2.80
2019-02-22T01:12:55.652Z,2.80
2019-02-22T01:13:55.644Z,3.10
2019-02-22T01:14:55.624Z,3.10
2019-02-22T01:15:55.639Z,2.80
2019-02-22T01:16:57.289Z,2.90
2019-02-22T01:17:55.604Z,3.10
2019-02-22T01:18:55.593Z,2.80
2019-02-22T01:19:55.584Z,3.00
2019-02-22T01:20:55.565Z,3.20
2019-02-22T01:21:55.570Z,3.50
2019-02-22T01:22:55.537Z,3.00
2019-02-22T01:23:55.537Z,2.60
2019-02-22T01:24:55.525Z,2.80
2019-02-22T01:25:55.517Z,3.20
2019-02-22T01:26:55.504Z,2.90
2019-02-22T01:27:55.518Z,3.20
2019-02-22T01:28:55.470Z,3.00
2019-02-22T01:29:55.472Z,3.10
2019-02-22T01:30:55.459Z,3.10
2019-02-22T01:31:55.447Z,3.30
2019-02-22T01:32:55.440Z,3.10
2019-02-22T01:33:55.443Z,2.80
2019-02-22T01:34:55.414Z,3.00
2019-02-22T01:35:55.406Z,3.30
2019-02-22T01:36:55.383Z,2.90
2019-02-22T01:37:55.376Z,2.90
2019-02-22T01:38:55.366Z,3.00
2019-02-22T01:39:55.376Z,2.90
2019-02-22T01:40:55.349Z,3.00
2019-02-22T01:41:55.330Z,2.90
2019-02-22T01:42:55.320Z,2.80
2019-02-22T01:43:55.316Z,2.90
2019-02-22T01:44:55.292Z,2.70
2019-02-22T01:45:55.310Z,3.10
2019-02-22T01:46:55.275Z,3.00
2019-02-22T01:47:55.275Z,2.60
2019-02-22T01:48:55.261Z,2.80
2019-02-22T01:49:55.246Z,3.00
2019-02-22T01:50:55.239Z,2.70
2019-02-22T01:51:55.254Z,3.00
2019-02-22T01:52:55.210Z,2.80
2019-02-22T01:53:55.232Z,2.70
2019-02-22T01:54:55.194Z,3.00
2019-02-22T01:55:55.175Z,2.90
2019-02-22T01:56:55.160Z,3.00
2019-02-22T01:57:55.167Z,2.60
2019-02-22T01:58:55.148Z,2.80
2019-02-22T01:59:55.141Z,2.80
2019-02-22T02:00:55.116Z,2.80
2019-02-22T02:01:55.106Z,3.10
2019-02-22T02:02:55.095Z,2.70
2019-02-22T02:03:55.111Z,3.00
2019-02-22T02:04:55.076Z,2.50
2019-02-22T02:05:55.590Z,2.90
2019-02-22T02:06:55.055Z,2.80
2019-02-22T02:07:55.045Z,2.80
2019-02-22T02:08:55.032Z,2.80
2019-02-22T02:09:55.080Z,3.00
2019-02-22T02:10:55.016Z,2.70
2019-02-22T02:11:55.000Z,2.80
2019-02-22T02:12:54.987Z,2.90
2019-02-22T02:13:54.981Z,2.70
2019-02-22T02:14:54.966Z,2.90
2019-02-22T02:15:54.978Z,2.60
2019-02-22T02:16:54.945Z,2.90
2019-02-22T02:17:54.942Z,2.60
2019-02-22T02:18:54.928Z,2.80
2019-02-22T02:19:54.911Z,3.00
2019-02-22T02:20:54.909Z,2.90
2019-02-22T02:21:54.927Z,2.60
2019-02-22T02:22:54.904Z,2.80
2019-02-22T02:23:54.872Z,2.60
2019-02-22T02:24:54.861Z,2.90
2019-02-22T02:25:55.602Z,2.60
2019-02-22T02:26:54.835Z,2.40
2019-02-22T02:27:55.027Z,2.70
2019-02-22T02:28:54.812Z,2.90
2019-02-22T02:29:54.803Z,2.70
2019-02-22T02:30:54.791Z,2.60
2019-02-22T02:31:54.782Z,2.60
2019-02-22T02:32:54.769Z,2.90
2019-02-22T02:33:54.933Z,2.50
2019-02-22T02:34:54.749Z,2.90
2019-02-22T02:35:54.755Z,2.70
2019-02-22T02:36:54.726Z,2.30
2019-02-22T02:37:54.718Z,2.60
2019-02-22T02:38:54.704Z,2.70
2019-02-22T02:39:54.706Z,2.80
2019-02-22T02:41:06.862Z,2.70
2019-02-22T02:41:55.670Z,2.90
2019-02-22T02:42:54.664Z,2.60
2019-02-22T02:43:54.643Z,3.10
2019-02-22T02:44:54.636Z,2.60
2019-02-22T02:45:54.648Z,2.80
2019-02-22T02:46:54.652Z,2.60
2019-02-22T02:47:54.602Z,2.60
2019-02-22T02:48:54.594Z,2.70
2019-02-22T02:49:54.575Z,2.70
2019-02-22T02:50:54.570Z,2.80
2019-02-22T02:51:54.724Z,2.70
2019-02-22T02:52:54.550Z,2.80
2019-02-22T02:53:54.537Z,2.70
2019-02-22T02:54:54.517Z,2.50
2019-02-22T02:55:54.530Z,2.50
2019-02-22T02:56:54.502Z,2.80
2019-02-22T02:57:54.661Z,2.80
2019-02-22T02:58:54.481Z,2.40
2019-02-22T02:59:54.476Z,2.60
2019-02-22T03:00:54.453Z,2.40
2019-02-22T03:01:54.446Z,2.50
2019-02-22T03:02:54.431Z,2.60
2019-02-22T03:03:54.474Z,2.60
2019-02-22T03:04:54.411Z,2.50
2019-02-22T03:05:54.434Z,2.80
2019-02-22T03:06:54.398Z,2.50
2019-02-22T03:07:54.376Z,2.50
2019-02-22T03:08:54.373Z,2.70
2019-02-22T03:09:54.376Z,2.40
2019-02-22T03:10:54.351Z,2.50
2019-02-22T03:11:54.336Z,2.50
2019-02-22T03:12:54.323Z,2.30
2019-02-22T03:13:54.309Z,2.60
2019-02-22T03:14:54.310Z,2.60
2019-02-22T03:15:54.314Z,2.60
2019-02-22T03:16:54.277Z,2.50
2019-02-22T03:17:54.280Z,2.30
2019-02-22T03:18:54.259Z,2.50
2019-02-22T03:19:54.247Z,2.60
2019-02-22T03:20:54.234Z,2.70
2019-02-22T03:21:54.350Z,2.40
2019-02-22T03:22:54.213Z,2.20
2019-02-22T03:23:54.209Z,2.70
2019-02-22T03:24:54.195Z,2.60
2019-02-22T03:25:54.185Z,2.40
2019-02-22T03:26:54.172Z,2.50
2019-02-22T03:27:54.205Z,2.40
2019-02-22T03:28:54.153Z,2.40
2019-02-22T03:29:54.137Z,2.50
2019-02-22T03:30:54.119Z,2.80
2019-02-22T03:31:54.123Z,2.40
2019-02-22T03:32:54.150Z,2.10
2019-02-22T03:33:54.302Z,2.60
2019-02-22T03:34:54.087Z,2.40
2019-02-22T03:35:54.071Z,2.50
2019-02-22T03:36:54.068Z,2.40
2019-02-22T03:37:54.056Z,2.40
2019-02-22T03:38:54.036Z,2.70
2019-02-22T03:39:54.078Z,2.20
2019-02-22T03:40:54.021Z,2.50
2019-02-22T03:41:54.003Z,2.40
2019-02-22T03:42:54.014Z,2.30
2019-02-22T03:43:53.985Z,2.50
2019-02-22T03:44:53.970Z,2.30
2019-02-22T03:45:54.006Z,2.20
2019-02-22T03:46:53.949Z,2.30
2019-02-22T03:47:53.937Z,2.50
2019-02-22T03:48:53.939Z,2.30
2019-02-22T03:49:53.911Z,2.50
2019-02-22T03:50:53.908Z,2.40
2019-02-22T03:51:53.952Z,2.50
2019-02-22T03:52:53.880Z,2.50
2019-02-22T03:53:53.873Z,2.20
2019-02-22T03:54:53.857Z,2.40
2019-02-22T03:55:53.857Z,2.40
2019-02-22T03:56:53.842Z,2.50
2019-02-22T03:57:53.875Z,2.40
2019-02-22T03:58:53.814Z,2.40
2019-02-22T03:59:53.803Z,2.40
2019-02-22T04:00:53.788Z,2.20
2019-02-22T04:01:53.782Z,2.30
2019-02-22T04:02:53.767Z,2.60
2019-02-22T04:03:53.792Z,2.20
2019-02-22T04:04:53.758Z,2.60
2019-02-22T04:05:53.736Z,2.40
2019-02-22T04:06:53.733Z,2.10
2019-02-22T04:07:53.719Z,2.40
2019-02-22T04:08:53.709Z,2.40
2019-02-22T04:09:53.710Z,2.40
2019-02-22T04:10:53.690Z,2.60
2019-02-22T04:11:53.765Z,2.30
2019-02-22T04:12:53.675Z,2.30
2019-02-22T04:13:53.649Z,2.60
2019-02-22T04:14:53.635Z,2.40
2019-02-22T04:15:53.647Z,2.50
2019-02-22T04:16:53.617Z,2.20
2019-02-22T04:17:53.606Z,2.40
2019-02-22T04:18:53.595Z,2.30
2019-02-22T04:19:53.585Z,2.30
2019-02-22T04:20:53.568Z,2.50
2019-02-22T04:21:53.747Z,2.30
2019-02-22T04:22:53.555Z,2.30
2019-02-22T04:23:53.541Z,2.50
2019-02-22T04:24:53.523Z,2.40
2019-02-22T04:25:53.515Z,2.30
2019-02-22T04:26:53.497Z,1.90
2019-02-22T04:27:53.506Z,2.40
2019-02-22T04:28:53.479Z,2.30
2019-02-22T04:29:53.469Z,2.30
2019-02-22T04:30:53.465Z,2.20
2019-02-22T04:31:53.448Z,2.40
2019-02-22T04:32:53.437Z,2.20
2019-02-22T04:33:53.453Z,2.20
2019-02-22T04:34:53.421Z,2.40
2019-02-22T04:35:53.403Z,2.30
2019-02-22T04:36:53.393Z,2.60
2019-02-22T04:37:53.383Z,2.40
2019-02-22T04:38:53.380Z,2.20
2019-02-22T04:39:53.561Z,2.30
2019-02-22T04:40:53.350Z,2.20
2019-02-22T04:41:58.070Z,2.30
2019-02-22T04:42:54.325Z,2.30
2019-02-22T04:43:53.315Z,2.20
2019-02-22T04:44:53.306Z,2.50
2019-02-22T04:45:53.315Z,2.30
2019-02-22T04:46:53.283Z,2.20
2019-02-22T04:47:53.266Z,2.30
2019-02-22T04:48:53.264Z,2.40
2019-02-22T04:49:53.246Z,2.10
2019-02-22T04:50:53.238Z,2.30
2019-02-22T04:51:53.251Z,2.60
2019-02-22T04:52:53.220Z,2.40
2019-02-22T04:53:53.209Z,2.60
2019-02-22T04:54:53.201Z,2.20
2019-02-22T04:55:53.186Z,1.90
2019-02-22T04:56:53.171Z,2.20
2019-02-22T04:57:53.186Z,2.10
2019-02-22T04:58:53.159Z,2.10
2019-02-22T04:59:53.145Z,2.40
2019-02-22T05:00:53.136Z,2.40
2019-02-22T05:01:53.120Z,2.30
2019-02-22T05:02:53.173Z,2.20
2019-02-22T05:03:53.116Z,2.10
2019-02-22T05:04:53.083Z,2.10
2019-02-22T05:05:53.115Z,2.20
2019-02-22T05:06:53.068Z,2.30
2019-02-22T05:07:53.050Z,2.30
2019-02-22T05:08:53.043Z,2.30
2019-02-22T05:09:53.052Z,2.50
2019-02-22T05:10:53.024Z,2.30
2019-02-22T05:11:53.010Z,2.40
2019-02-22T05:12:52.999Z,2.30
2019-02-22T05:13:52.990Z,2.20
2019-02-22T05:14:52.978Z,2.50
2019-02-22T05:15:52.997Z,2.40
2019-02-22T05:16:52.959Z,2.20
2019-02-22T05:17:52.952Z,2.20
2019-02-22T05:18:52.932Z,2.20
2019-02-22T05:19:52.931Z,2.30
2019-02-22T05:20:52.911Z,2.30
2019-02-22T05:21:52.921Z,2.20
2019-02-22T05:23:03.325Z,2.20
2019-02-22T05:23:53.900Z,2.20
2019-02-22T05:24:52.874Z,2.20
2019-02-22T05:25:52.856Z,2.10
2019-02-22T05:26:52.842Z,2.30
2019-02-22T05:27:52.854Z,2.20
2019-02-22T05:28:52.820Z,2.40
2019-02-22T05:29:52.806Z,2.30
2019-02-22T05:30:52.801Z,2.10
2019-02-22T05:31:52.794Z,2.00
2019-02-22T05:32:52.778Z,2.30
2019-02-22T05:33:52.800Z,2.00
2019-02-22T05:34:52.758Z,2.30
2019-02-22T05:35:52.746Z,2.20
2019-02-22T05:36:52.732Z,2.30
2019-02-22T05:37:52.724Z,2.20
2019-02-22T05:38:52.709Z,2.10
2019-02-22T05:39:52.718Z,2.30
2019-02-22T05:40:52.695Z,2.30
2019-02-22T05:41:52.685Z,2.50
2019-02-22T05:42:52.672Z,2.30
2019-02-22T05:43:52.662Z,2.10
2019-02-22T05:44:52.650Z,2.20
2019-02-22T05:45:52.658Z,2.40
2019-02-22T05:47:00.345Z,2.40
2019-02-22T05:47:53.613Z,2.20
2019-02-22T05:48:52.595Z,2.10
2019-02-22T05:49:52.592Z,2.30
2019-02-22T05:50:52.579Z,2.30
2019-02-22T05:51:52.626Z,2.10
2019-02-22T05:52:52.592Z,2.10
2019-02-22T05:53:52.552Z,2.00
2019-02-22T05:54:52.539Z,2.40
2019-02-22T05:55:52.515Z,2.10
2019-02-22T05:56:54.953Z,2.20
2019-02-22T05:57:52.522Z,2.20
2019-02-22T05:58:52.496Z,2.10
2019-02-22T05:59:52.484Z,2.20
2019-02-22T06:00:52.471Z,2.00
2019-02-22T06:01:52.461Z,2.10
2019-02-22T06:02:52.446Z,1.90
2019-02-22T06:03:52.455Z,2.20
2019-02-22T06:04:52.420Z,2.20
2019-02-22T06:05:52.419Z,2.20
2019-02-22T06:06:52.405Z,2.10
2019-02-22T06:07:52.393Z,2.20
2019-02-22T06:08:52.382Z,2.20
2019-02-22T06:09:52.417Z,2.30
2019-02-22T06:10:52.372Z,2.40
2019-02-22T06:11:52.363Z,2.20
2019-02-22T06:12:52.335Z,2.40
2019-02-22T06:13:52.326Z,2.30
2019-02-22T06:14:52.320Z,2.40
2019-02-22T06:15:52.327Z,2.20
2019-02-22T06:16:52.290Z,2.40
2019-02-22T06:17:52.287Z,2.00
2019-02-22T06:18:52.272Z,2.30
2019-02-22T06:19:52.259Z,2.10
2019-02-22T06:20:52.242Z,2.00
2019-02-22T06:21:52.254Z,2.30
2019-02-22T06:22:52.231Z,2.10
2019-02-22T06:23:52.214Z,2.10
2019-02-22T06:24:52.286Z,2.10
2019-02-22T06:25:52.199Z,2.00
2019-02-22T06:26:52.180Z,2.10
2019-02-22T06:27:52.195Z,2.20
2019-02-22T06:28:52.159Z,2.00
2019-02-22T06:29:52.145Z,2.30
2019-02-22T06:30:52.141Z,2.00
2019-02-22T06:31:52.127Z,2.00
2019-02-22T06:32:52.116Z,2.20
2019-02-22T06:33:52.122Z,2.10
2019-02-22T06:34:52.095Z,2.00
2019-02-22T06:35:52.083Z,2.10
2019-02-22T06:37:01.070Z,2.20
2019-02-22T06:37:53.059Z,2.00
2019-02-22T06:38:52.048Z,2.30
2019-02-22T06:39:52.061Z,2.10
2019-02-22T06:40:52.033Z,2.20
2019-02-22T06:41:52.010Z,2.10
2019-02-22T06:42:52.002Z,2.30
2019-02-22T06:43:52.015Z,2.10
2019-02-22T06:44:51.986Z,2.30
2019-02-22T06:45:51.992Z,2.20
2019-02-22T06:46:51.969Z,2.20
2019-02-22T06:47:51.953Z,2.00
2019-02-22T06:48:51.942Z,2.00
2019-02-22T06:49:51.929Z,2.10
2019-02-22T06:50:51.913Z,2.20
2019-02-22T06:51:51.928Z,2.20
2019-02-22T06:52:51.896Z,2.00
2019-02-22T06:53:51.895Z,2.30
2019-02-22T06:54:51.874Z,2.00
2019-02-22T06:55:51.861Z,2.20
2019-02-22T06:56:51.849Z,2.00
2019-02-22T06:57:51.864Z,2.00
2019-02-22T06:58:51.832Z,2.20
2019-02-22T06:59:51.826Z,1.80
2019-02-22T07:00:51.809Z,2.00
2019-02-22T07:01:51.799Z,1.90
2019-02-22T07:02:51.791Z,2.10
2019-02-22T07:03:51.911Z,2.10
2019-02-22T07:04:51.769Z,2.10
2019-02-22T07:05:51.745Z,1.90
2019-02-22T07:06:51.750Z,1.90
2019-02-22T07:07:51.740Z,2.10
2019-02-22T07:08:51.722Z,2.30
2019-02-22T07:09:51.730Z,2.10
2019-02-22T07:10:51.703Z,2.10
2019-02-22T07:11:51.683Z,2.10
2019-02-22T07:12:57.054Z,2.00
2019-02-22T07:13:52.654Z,2.20
2019-02-22T07:14:51.658Z,2.20
2019-02-22T07:15:51.665Z,2.10
2019-02-22T07:16:51.643Z,2.00
2019-02-22T07:17:51.626Z,2.10
2019-02-22T07:18:51.615Z,2.10
2019-02-22T07:19:51.595Z,2.00
2019-02-22T07:20:51.581Z,2.00
2019-02-22T07:21:53.045Z,2.10
2019-02-22T07:22:51.566Z,2.00
2019-02-22T07:23:51.553Z,2.10
2019-02-22T07:24:51.540Z,2.60
2019-02-22T07:25:51.530Z,2.10
2019-02-22T07:26:51.525Z,1.90
2019-02-22T07:27:51.536Z,2.10
2019-02-22T07:28:51.504Z,2.10
2019-02-22T07:29:51.488Z,2.00
2019-02-22T07:30:51.479Z,2.00
2019-02-22T07:31:51.463Z,2.20
2019-02-22T07:32:51.482Z,2.00
2019-02-22T07:33:51.465Z,2.10
2019-02-22T07:34:51.429Z,2.10
2019-02-22T07:35:51.420Z,2.00
2019-02-22T07:36:51.414Z,2.10
2019-02-22T07:37:51.400Z,2.30
2019-02-22T07:38:51.386Z,2.20
2019-02-22T07:39:51.396Z,2.20
2019-02-22T07:40:51.361Z,2.10
2019-02-22T07:41:51.358Z,2.30
2019-02-22T07:42:51.342Z,2.20
2019-02-22T07:43:51.339Z,2.00
2019-02-22T07:44:51.351Z,2.20
2019-02-22T07:45:51.331Z,2.00
2019-02-22T07:46:51.294Z,2.30
2019-02-22T07:47:51.284Z,1.90
2019-02-22T07:48:51.275Z,2.10
2019-02-22T07:49:51.259Z,1.90
2019-02-22T07:50:57.492Z,2.10
2019-02-22T07:51:52.264Z,2.20
2019-02-22T07:52:51.236Z,2.10
2019-02-22T07:53:51.238Z,2.20
2019-02-22T07:54:51.214Z,1.90
2019-02-22T07:55:51.203Z,2.20
2019-02-22T07:56:51.187Z,2.20
2019-02-22T07:57:51.209Z,2.10
2019-02-22T07:58:51.171Z,1.90
2019-02-22T07:59:51.150Z,2.00
2019-02-22T08:00:51.150Z,2.10
2019-02-22T08:01:51.145Z,2.10
2019-02-22T08:02:51.125Z,2.40
2019-02-22T08:03:51.132Z,2.10
2019-02-22T08:04:51.100Z,1.90
2019-02-22T08:05:51.093Z,2.00
2019-02-22T08:06:51.076Z,2.20
2019-02-22T08:07:51.099Z,2.10
2019-02-22T08:08:51.053Z,2.30
2019-02-22T08:09:51.061Z,2.10
2019-02-22T08:10:51.036Z,2.00
2019-02-22T08:11:51.031Z,2.00
2019-02-22T08:12:51.014Z,1.80
2019-02-22T08:13:51.001Z,2.10
2019-02-22T08:14:50.991Z,2.10
2019-02-22T08:15:51.008Z,2.00
2019-02-22T08:16:50.967Z,2.10
2019-02-22T08:17:50.957Z,2.10
2019-02-22T08:19:00.944Z,2.10
2019-02-22T08:19:51.931Z,2.00
2019-02-22T08:20:50.929Z,2.10
2019-02-22T08:21:50.938Z,2.00
2019-02-22T08:22:50.906Z,1.90
2019-02-22T08:23:50.893Z,2.10
2019-02-22T08:24:50.885Z,2.10
2019-02-22T08:25:50.870Z,2.00
2019-02-22T08:26:50.854Z,2.20
2019-02-22T08:27:54.186Z,2.40
2019-02-22T08:28:50.841Z,2.20
2019-02-22T08:29:50.835Z,2.20
2019-02-22T08:30:50.816Z,2.30
2019-02-22T08:31:50.803Z,2.00
2019-02-22T08:32:50.816Z,2.00
2019-02-22T08:33:50.796Z,2.10
2019-02-22T08:34:50.772Z,2.10
2019-02-22T08:35:50.773Z,2.10
2019-02-22T08:36:50.753Z,2.20
2019-02-22T08:37:50.733Z,2.20
2019-02-22T08:38:50.730Z,2.00
2019-02-22T08:39:58.623Z,2.10
2019-02-22T08:40:51.699Z,2.10
2019-02-22T08:41:50.694Z,1.80
2019-02-22T08:42:50.675Z,2.00
2019-02-22T08:43:50.670Z,1.80
2019-02-22T08:44:50.655Z,2.00
2019-02-22T08:45:50.660Z,2.00
2019-02-22T08:46:50.640Z,1.90
2019-02-22T08:47:50.624Z,2.10
2019-02-22T08:48:50.633Z,2.00
2019-02-22T08:49:50.601Z,2.00
2019-02-22T08:50:50.598Z,2.00
2019-02-22T08:51:50.618Z,1.80
2019-02-22T08:52:50.566Z,2.00
2019-02-22T08:53:50.564Z,2.10
2019-02-22T08:54:50.571Z,2.20
2019-02-22T08:55:50.549Z,2.00
2019-02-22T08:56:50.525Z,2.00
2019-02-22T08:57:50.535Z,2.20
2019-02-22T08:58:50.507Z,2.10
2019-02-22T08:59:50.491Z,2.20
2019-02-22T09:00:50.481Z,2.20
2019-02-22T09:01:50.471Z,2.10
2019-02-22T09:02:50.476Z,2.20
2019-02-22T09:03:51.368Z,2.00
2019-02-22T09:04:50.435Z,2.00
2019-02-22T09:05:50.436Z,2.10
2019-02-22T09:06:52.313Z,2.20
2019-02-22T09:07:50.403Z,2.00
2019-02-22T09:08:50.396Z,2.00
2019-02-22T09:09:50.421Z,2.20
2019-02-22T09:11:00.123Z,2.00
2019-02-22T09:11:51.356Z,2.30
2019-02-22T09:12:50.352Z,2.10
2019-02-22T09:13:50.341Z,1.80
2019-02-22T09:14:50.329Z,1.90
2019-02-22T09:15:50.334Z,2.10
2019-02-22T09:16:50.305Z,2.00
2019-02-22T09:17:50.621Z,2.00
2019-02-22T09:18:50.284Z,2.10
2019-02-22T09:19:50.270Z,2.10
2019-02-22T09:20:50.255Z,2.00
2019-02-22T09:21:50.265Z,2.10
2019-02-22T09:22:50.240Z,2.10
2019-02-22T09:23:50.228Z,2.10
2019-02-22T09:24:50.220Z,2.10
2019-02-22T09:25:50.201Z,2.00
2019-02-22T09:26:50.190Z,2.00
2019-02-22T09:27:50.207Z,2.10
2019-02-22T09:28:50.170Z,2.00
2019-02-22T09:29:58.577Z,2.10
2019-02-22T09:30:51.145Z,2.00
2019-02-22T09:31:50.132Z,2.10
2019-02-22T09:32:50.141Z,1.90
2019-02-22T09:33:50.132Z,2.10
2019-02-22T09:34:50.108Z,2.30
2019-02-22T09:35:50.095Z,2.00
2019-02-22T09:36:50.098Z,1.80
2019-02-22T09:37:50.077Z,2.10
2019-02-22T09:38:50.062Z,2.10
2019-02-22T09:39:50.076Z,2.10
2019-02-22T09:40:50.043Z,2.20
2019-02-22T09:41:50.032Z,2.00
2019-02-22T09:42:50.043Z,2.10
2019-02-22T09:43:54.993Z,1.80
2019-02-22T09:44:51.002Z,1.90
2019-02-22T09:45:50.016Z,2.30
2019-02-22T09:46:49.970Z,2.10
2019-02-22T09:47:49.968Z,2.10
2019-02-22T09:48:49.953Z,2.20
2019-02-22T09:49:49.936Z,2.00
2019-02-22T09:50:49.928Z,2.10
2019-02-22T09:51:49.948Z,2.10
2019-02-22T09:52:49.908Z,2.00
2019-02-22T09:53:49.899Z,2.30
2019-02-22T09:54:49.891Z,1.90
2019-02-22T09:55:49.874Z,2.00
2019-02-22T09:56:51.007Z,2.10
2019-02-22T09:57:49.871Z,2.00
2019-02-22T09:58:49.838Z,1.90
2019-02-22T09:59:49.864Z,2.00
2019-02-22T10:00:49.843Z,2.10
2019-02-22T10:01:50.062Z,2.00
2019-02-22T10:02:49.797Z,2.20
2019-02-22T10:03:49.806Z,2.00
2019-02-22T10:04:55.052Z,1.80
2019-02-22T10:05:50.759Z,2.00
2019-02-22T10:06:49.762Z,1.80
2019-02-22T10:07:49.748Z,2.00
2019-02-22T10:08:49.735Z,2.10
2019-02-22T10:09:49.745Z,1.90
2019-02-22T10:10:49.712Z,2.20
2019-02-22T10:11:49.698Z,2.10
2019-02-22T10:12:49.708Z,1.90
2019-02-22T10:13:49.671Z,2.00
2019-02-22T10:14:49.665Z,2.00
2019-02-22T10:15:49.688Z,1.70
2019-02-22T10:16:49.652Z,2.00
2019-02-22T10:17:49.627Z,1.90
2019-02-22T10:18:49.618Z,2.00
2019-02-22T10:19:49.614Z,2.30
2019-02-22T10:20:49.599Z,2.00
2019-02-22T10:21:49.652Z,2.10
2019-02-22T10:22:49.583Z,1.80
2019-02-22T10:23:49.563Z,2.00
2019-02-22T10:24:49.553Z,1.90
2019-02-22T10:25:49.545Z,2.30
2019-02-22T10:26:49.550Z,1.90
2019-02-22T10:27:49.584Z,2.00
2019-02-22T10:28:49.516Z,2.00
2019-02-22T10:29:49.499Z,2.10
2019-02-22T10:30:49.488Z,2.00
2019-02-22T10:31:49.476Z,2.30
2019-02-22T10:32:49.472Z,2.30
2019-02-22T10:33:49.504Z,2.20
2019-02-22T10:34:49.444Z,2.00
2019-02-22T10:35:49.439Z,2.10
2019-02-22T10:36:49.427Z,2.30
2019-02-22T10:37:49.419Z,2.00
2019-02-22T10:38:49.403Z,2.20
2019-02-22T10:39:49.459Z,2.00
2019-02-22T10:40:49.382Z,2.00
2019-02-22T10:41:49.378Z,2.10
2019-02-22T10:42:49.359Z,2.10
2019-02-22T10:43:49.347Z,2.00
2019-02-22T10:44:49.354Z,2.10
2019-02-22T10:45:49.347Z,2.00
2019-02-22T10:46:49.319Z,2.00
2019-02-22T10:47:49.313Z,2.00
2019-02-22T10:48:49.315Z,1.90
2019-02-22T10:49:49.308Z,2.10
2019-02-22T10:50:49.269Z,1.90
2019-02-22T10:51:49.278Z,2.20
2019-02-22T10:52:49.249Z,2.10
2019-02-22T10:53:49.237Z,2.00
2019-02-22T10:54:49.231Z,2.00
2019-02-22T10:55:49.219Z,2.20
2019-02-22T10:56:49.211Z,2.20
2019-02-22T10:57:49.615Z,2.30
2019-02-22T10:58:49.191Z,1.90
2019-02-22T10:59:49.168Z,2.00
2019-02-22T11:00:49.162Z,2.20
2019-02-22T11:01:49.143Z,1.90
2019-02-22T11:02:49.168Z,2.10
2019-02-22T11:03:49.203Z,2.20
2019-02-22T11:04:49.118Z,1.90
2019-02-22T11:05:49.116Z,2.10
2019-02-22T11:06:49.093Z,2.20
2019-02-22T11:07:49.089Z,2.00
2019-02-22T11:08:49.071Z,2.10
2019-02-22T11:09:49.128Z,2.10
2019-02-22T11:10:49.053Z,2.00
2019-02-22T11:11:49.045Z,2.10
2019-02-22T11:12:49.025Z,2.10
2019-02-22T11:13:49.022Z,1.80
2019-02-22T11:14:49.008Z,2.00
2019-02-22T11:15:49.057Z,1.80
2019-02-22T11:16:48.986Z,1.90
2019-02-22T11:17:49.008Z,2.00
2019-02-22T11:18:48.966Z,2.10
2019-02-22T11:19:48.958Z,1.90
2019-02-22T11:20:48.941Z,2.00
2019-02-22T11:21:48.986Z,2.00
2019-02-22T11:22:48.918Z,2.10
2019-02-22T11:23:48.900Z,2.00
2019-02-22T11:24:49.074Z,2.10
2019-02-22T11:25:48.891Z,2.10
2019-02-22T11:26:48.872Z,2.00
2019-02-22T11:27:49.934Z,2.10
2019-02-22T11:28:48.853Z,1.90
2019-02-22T11:29:49.489Z,2.20
2019-02-22T11:30:48.837Z,2.00
2019-02-22T11:31:48.829Z,1.90
2019-02-22T11:32:48.815Z,2.00
2019-02-22T11:33:48.837Z,2.00
2019-02-22T11:34:48.783Z,2.10
2019-02-22T11:35:48.779Z,2.20
2019-02-22T11:36:48.774Z,2.00
2019-02-22T11:37:48.755Z,2.20
2019-02-22T11:38:48.757Z,2.00
2019-02-22T11:39:49.099Z,2.00
2019-02-22T11:40:48.732Z,1.90
2019-02-22T11:41:48.707Z,2.10
2019-02-22T11:42:48.694Z,1.90
2019-02-22T11:43:48.685Z,2.30
2019-02-22T11:44:48.677Z,2.00
2019-02-22T11:45:49.992Z,2.30
2019-02-22T11:46:48.661Z,1.90
2019-02-22T11:47:48.650Z,1.80
2019-02-22T11:48:48.630Z,2.00
2019-02-22T11:49:48.623Z,2.20
2019-02-22T11:50:48.664Z,2.10
2019-02-22T11:51:48.720Z,1.90
2019-02-22T11:52:48.612Z,2.20
2019-02-22T11:53:48.583Z,2.00
2019-02-22T11:54:48.564Z,1.80
2019-02-22T11:55:48.560Z,1.90
2019-02-22T11:56:48.554Z,2.10
2019-02-22T11:57:48.582Z,2.10
2019-02-22T11:58:48.524Z,2.20
2019-02-22T11:59:48.544Z,1.90
2019-02-22T12:00:48.577Z,2.00
2019-02-22T12:01:48.490Z,2.00
2019-02-22T12:02:48.481Z,2.10
2019-02-22T12:03:48.520Z,2.00
2019-02-22T12:04:48.454Z,2.10
2019-02-22T12:05:48.445Z,2.00
2019-02-22T12:06:48.437Z,2.20
2019-02-22T12:07:48.438Z,2.00
2019-02-22T12:08:48.429Z,2.00
2019-02-22T12:09:48.484Z,2.00
2019-02-22T12:10:48.394Z,1.80
2019-02-22T12:11:48.381Z,2.20
2019-02-22T12:12:48.631Z,1.90
2019-02-22T12:13:48.355Z,2.00
2019-02-22T12:14:51.948Z,2.10
2019-02-22T12:15:48.395Z,1.80
2019-02-22T12:16:48.326Z,1.90
2019-02-22T12:17:48.312Z,2.20
2019-02-22T12:18:48.301Z,2.00
2019-02-22T12:19:48.288Z,2.20
2019-02-22T12:20:48.299Z,2.00
2019-02-22T12:21:48.387Z,2.10
2019-02-22T12:22:48.260Z,2.00
2019-02-22T12:23:48.246Z,2.10
2019-02-22T12:24:48.232Z,2.00
2019-02-22T12:25:48.273Z,1.90
2019-02-22T12:26:48.245Z,2.10
2019-02-22T12:27:48.250Z,2.00
2019-02-22T12:28:48.772Z,2.10
2019-02-22T12:29:48.183Z,2.00
2019-02-22T12:30:48.176Z,2.10
2019-02-22T12:31:48.168Z,2.20
2019-02-22T12:32:48.151Z,2.30
2019-02-22T12:33:48.225Z,2.10
2019-02-22T12:34:48.125Z,2.10
2019-02-22T12:35:48.110Z,2.20
2019-02-22T12:36:48.165Z,2.10
2019-02-22T12:37:48.091Z,2.00
2019-02-22T12:38:48.079Z,2.30
2019-02-22T12:39:48.098Z,2.10
2019-02-22T12:40:48.057Z,1.90
2019-02-22T12:41:48.042Z,2.00
2019-02-22T12:42:48.047Z,1.90
2019-02-22T12:43:48.025Z,2.40
2019-02-22T12:44:48.017Z,1.80
2019-02-22T12:45:48.042Z,2.00
2019-02-22T12:46:48.001Z,2.30
2019-02-22T12:47:47.983Z,1.90
2019-02-22T12:48:47.973Z,2.00
2019-02-22T12:49:47.958Z,2.00
2019-02-22T12:50:47.943Z,2.00
2019-02-22T12:51:48.091Z,2.00
2019-02-22T12:52:47.939Z,2.10
2019-02-22T12:53:47.916Z,2.20
2019-02-22T12:54:47.907Z,2.20
2019-02-22T12:55:47.889Z,2.00
2019-02-22T12:56:57.657Z,2.30
2019-02-22T12:57:49.153Z,2.00
2019-02-22T12:58:47.888Z,1.90
2019-02-22T12:59:48.781Z,2.10
2019-02-22T13:00:47.849Z,2.00
2019-02-22T13:01:47.823Z,1.90
2019-02-22T13:02:48.110Z,2.10
2019-02-22T13:03:47.961Z,2.10
2019-02-22T13:04:48.050Z,2.10
2019-02-22T13:05:47.782Z,2.10
2019-02-22T13:06:47.768Z,2.10
2019-02-22T13:07:47.763Z,2.10
2019-02-22T13:08:47.759Z,1.90
2019-02-22T13:09:47.762Z,2.20
2019-02-22T13:10:47.732Z,2.00
2019-02-22T13:11:47.720Z,2.00
2019-02-22T13:12:47.720Z,1.90
2019-02-22T13:13:47.697Z,2.10
2019-02-22T13:14:47.690Z,2.20
2019-02-22T13:15:47.692Z,2.10
2019-02-22T13:16:47.663Z,2.00
2019-02-22T13:17:47.697Z,2.10
2019-02-22T13:18:47.638Z,2.30
2019-02-22T13:19:47.624Z,2.00
2019-02-22T13:20:47.615Z,2.00
2019-02-22T13:21:47.665Z,1.80
2019-02-22T13:22:47.597Z,2.30
2019-02-22T13:23:47.575Z,2.20
2019-02-22T13:24:47.574Z,2.10
2019-02-22T13:25:47.569Z,1.70
2019-02-22T13:26:47.551Z,1.90
2019-02-22T13:27:47.601Z,2.20
2019-02-22T13:28:47.560Z,2.00
2019-02-22T13:29:47.519Z,1.90
2019-02-22T13:30:47.505Z,2.10
2019-02-22T13:31:47.526Z,2.00
2019-02-22T13:32:47.492Z,2.00
2019-02-22T13:33:47.537Z,2.00
2019-02-22T13:34:47.464Z,2.10
2019-02-22T13:35:47.457Z,2.00
2019-02-22T13:36:47.466Z,2.20
2019-02-22T13:37:47.434Z,2.10
2019-02-22T13:38:47.422Z,2.00
2019-02-22T13:39:47.430Z,1.80
2019-02-22T13:40:49.228Z,2.10
2019-02-22T13:41:47.420Z,2.00
2019-02-22T13:42:47.394Z,2.30
2019-02-22T13:43:47.369Z,2.10
2019-02-22T13:44:47.352Z,2.10
2019-02-22T13:45:47.361Z,2.10
2019-02-22T13:46:47.329Z,2.00
2019-02-22T13:47:47.322Z,2.10
2019-02-22T13:48:47.308Z,2.30
2019-02-22T13:49:47.300Z,2.00
2019-02-22T13:50:47.292Z,1.90
2019-02-22T13:51:47.327Z,2.10
2019-02-22T13:52:47.262Z,2.10
2019-02-22T13:53:47.258Z,2.20
2019-02-22T13:54:47.564Z,2.30
2019-02-22T13:55:47.230Z,2.10
2019-02-22T13:56:47.233Z,2.10
2019-02-22T13:57:47.262Z,2.10